Time;durP1;ratioP1;P1;durP2;ratioP2;P2;SDS_P1;SDS_P2;PMS_P1;PMS_P2;Temp;Humidity;BMP_temperature;BMP_pressure;BME280_temperature;BME280_humidity;BME280_pressure;Samples;Min_cycle;Max_cycle;Signal;HPM_P1;HPM_P2
2022/07/02 00:02:22;;;;;;;6.95;2.05;;;16.70;99.90;;;;;;4952744;29;20026;-69
2022/07/02 00:04:56;;;;;;;5.18;1.98;;;16.70;99.90;;;;;;4935598;29;20437;-69
2022/07/02 00:07:22;;;;;;;5.53;1.90;;;16.70;99.90;;;;;;4952786;28;20347;-69
2022/07/02 00:09:48;;;;;;;6.20;1.92;;;16.60;99.90;;;;;;4952422;28;20476;-69
2022/07/02 00:12:14;;;;;;;6.72;1.83;;;16.60;99.90;;;;;;4952667;29;20118;-69
2022/07/02 00:14:40;;;;;;;6.68;1.85;;;16.60;99.90;;;;;;4952795;29;20062;-69
2022/07/02 00:17:06;;;;;;;6.22;2.25;;;16.60;99.90;;;;;;4951076;29;20101;-69
2022/07/02 00:19:35;;;;;;;4.93;1.90;;;16.50;99.90;;;;;;4952394;28;20033;-69
2022/07/02 00:22:02;;;;;;;8.13;2.35;;;16.50;99.90;;;;;;4951380;29;20473;-69
2022/07/02 00:24:28;;;;;;;7.85;2.30;;;16.50;99.90;;;;;;4951322;29;20035;-69
2022/07/02 00:26:57;;;;;;;6.28;1.90;;;16.50;99.90;;;;;;4952587;28;20411;-69
2022/07/02 00:29:55;;;;;;;6.28;1.80;;;16.40;99.90;;;;;;4952270;28;20053;-70
2022/07/02 00:32:22;;;;;;;6.60;1.97;;;16.40;99.90;;;;;;4951138;29;20099;-69
2022/07/02 00:34:49;;;;;;;4.82;1.92;;;16.40;99.90;;;;;;4952781;29;20039;-69
2022/07/02 00:37:15;;;;;;;4.03;1.58;;;16.40;99.90;;;;;;4952286;29;20055;-69
2022/07/02 00:39:41;;;;;;;6.95;2.25;;;16.30;99.90;;;;;;4952525;28;20027;-69
2022/07/02 00:42:09;;;;;;;7.20;2.22;;;16.30;99.90;;;;;;4952367;29;20034;-70
2022/07/02 00:44:36;;;;;;;3.13;1.83;;;16.30;99.90;;;;;;4952727;29;20050;-69
2022/07/02 00:47:07;;;;;;;5.00;2.05;;;16.30;99.90;;;;;;4952281;28;20094;-70
2022/07/02 00:49:36;;;;;;;4.60;2.25;;;16.30;99.90;;;;;;4952265;28;20038;-69
2022/07/02 00:52:03;;;;;;;6.25;2.20;;;16.20;99.90;;;;;;4952416;29;20489;-70
2022/07/02 00:54:29;;;;;;;5.90;1.90;;;16.20;99.90;;;;;;4954655;28;20384;-69
2022/07/02 00:56:55;;;;;;;4.82;2.25;;;16.30;99.90;;;;;;4955678;29;20043;-69
2022/07/02 00:59:25;;;;;;;4.40;2.00;;;16.30;99.90;;;;;;4955536;28;20054;-69
2022/07/02 01:01:51;;;;;;;5.30;2.35;;;16.30;99.90;;;;;;4955830;29;20035;-70
2022/07/02 01:04:18;;;;;;;5.05;1.75;;;16.20;99.90;;;;;;4955685;29;20548;-69
2022/07/02 01:06:45;;;;;;;4.55;2.20;;;16.20;99.90;;;;;;4955554;29;20058;-69
2022/07/02 01:11:59;;;;;;;5.78;2.30;;;16.10;99.90;;;;;;4955598;28;20039;-70
2022/07/02 01:14:26;;;;;;;4.40;2.10;;;16.10;99.90;;;;;;4955510;29;20118;-70
2022/07/02 01:16:52;;;;;;;8.52;2.47;;;16.10;99.90;;;;;;4955370;29;20035;-69
2022/07/02 01:19:20;;;;;;;6.05;2.60;;;16.00;99.90;;;;;;4955288;28;20031;-69
2022/07/02 01:22:31;;;;;;;4.57;2.25;;;16.10;99.90;;;;;;4955237;29;20082;-69
2022/07/02 01:24:57;;;;;;;4.32;2.35;;;16.10;99.90;;;;;;4933737;29;20036;-69
2022/07/02 01:27:23;;;;;;;4.35;2.00;;;16.00;99.90;;;;;;4952783;28;20324;-69
2022/07/02 01:29:50;;;;;;;4.63;2.20;;;16.00;99.90;;;;;;4954910;29;20066;-69
2022/07/02 01:32:17;;;;;;;4.00;1.83;;;16.00;99.90;;;;;;4955087;29;20032;-69
2022/07/02 01:35:02;;;;;;;3.97;2.00;;;16.00;99.90;;;;;;4955336;29;20074;-69
2022/07/02 01:37:28;;;;;;;5.47;2.28;;;16.00;99.90;;;;;;4954855;28;20039;-69
2022/07/02 01:39:54;;;;;;;5.20;2.00;;;16.00;99.90;;;;;;4954957;28;20110;-69
2022/07/02 01:42:20;;;;;;;6.82;2.03;;;16.00;99.90;;;;;;4955080;29;20162;-69
2022/07/02 01:44:46;;;;;;;5.13;2.20;;;16.00;99.90;;;;;;4954968;29;20496;-69
2022/07/02 01:47:13;;;;;;;3.83;1.77;;;16.10;99.90;;;;;;4955105;29;20389;-69
2022/07/02 01:49:40;;;;;;;7.90;1.95;;;16.00;99.90;;;;;;4954703;28;20027;-69
2022/07/02 01:52:07;;;;;;;4.18;2.00;;;15.90;99.90;;;;;;4954819;29;20027;-69
2022/07/02 01:54:34;;;;;;;10.00;2.05;;;15.90;99.90;;;;;;4953608;29;20035;-69
2022/07/02 01:57:00;;;;;;;3.90;1.83;;;15.80;99.90;;;;;;4954547;29;20038;-69
2022/07/02 01:59:27;;;;;;;4.43;2.08;;;15.80;99.90;;;;;;4954459;28;20393;-69
2022/07/02 02:01:53;;;;;;;6.60;2.20;;;15.70;99.90;;;;;;4954644;29;20035;-69
2022/07/02 02:04:19;;;;;;;6.35;2.70;;;15.70;99.90;;;;;;4954321;28;20031;-69
2022/07/02 02:06:45;;;;;;;6.32;2.40;;;15.60;99.90;;;;;;4954448;29;20058;-69
2022/07/02 02:09:11;;;;;;;6.28;2.85;;;15.70;99.90;;;;;;4954526;28;20035;-69
2022/07/02 02:11:37;;;;;;;6.10;2.88;;;15.60;99.90;;;;;;4954442;29;20046;-69
2022/07/02 02:14:03;;;;;;;5.88;2.70;;;15.60;99.90;;;;;;4954467;28;20027;-69
2022/07/02 02:16:30;;;;;;;4.72;2.20;;;15.60;99.90;;;;;;4954258;29;20027;-69
2022/07/02 02:18:58;;;;;;;5.70;2.25;;;15.60;99.90;;;;;;4954309;28;20488;-69
2022/07/02 02:21:26;;;;;;;4.00;2.47;;;15.60;99.90;;;;;;4954306;29;20392;-69
2022/07/02 02:23:54;;;;;;;7.53;2.30;;;15.60;99.90;;;;;;4954458;29;20445;-69
2022/07/02 02:26:20;;;;;;;9.30;2.53;;;15.60;99.90;;;;;;4954044;29;20031;-69
2022/07/02 02:28:46;;;;;;;6.30;2.10;;;15.50;99.90;;;;;;4954012;28;20046;-69
2022/07/02 02:31:12;;;;;;;5.20;2.42;;;15.50;99.90;;;;;;4954192;29;20404;-69
2022/07/02 02:33:38;;;;;;;5.68;2.28;;;15.50;99.90;;;;;;4954303;28;20035;-69
2022/07/02 02:36:04;;;;;;;5.25;2.03;;;15.60;99.90;;;;;;4952770;29;20400;-69
2022/07/02 02:38:31;;;;;;;5.45;2.35;;;15.50;99.90;;;;;;4953931;28;20031;-69
2022/07/02 02:40:57;;;;;;;5.22;2.47;;;15.50;99.90;;;;;;4954191;29;20369;-69
2022/07/02 02:43:23;;;;;;;5.70;2.30;;;15.50;99.90;;;;;;4953787;29;20120;-69
2022/07/02 02:45:49;;;;;;;5.85;2.25;;;15.60;99.90;;;;;;4953759;29;20570;-69
2022/07/02 02:48:16;;;;;;;5.75;2.50;;;15.40;99.90;;;;;;4953824;28;20067;-69
2022/07/02 02:50:42;;;;;;;6.00;2.30;;;15.40;99.90;;;;;;4953636;29;20028;-69
2022/07/02 02:53:08;;;;;;;4.38;2.20;;;15.30;99.90;;;;;;4953813;29;20023;-69
2022/07/02 02:55:34;;;;;;;7.30;2.20;;;15.30;99.90;;;;;;4953643;29;20027;-69
2022/07/02 02:58:00;;;;;;;5.88;2.10;;;15.30;99.90;;;;;;4953391;28;20027;-69
2022/07/02 03:00:27;;;;;;;6.65;2.50;;;15.40;99.90;;;;;;4953474;28;20031;-69
2022/07/02 03:02:53;;;;;;;5.82;2.30;;;15.40;99.90;;;;;;4953703;29;20035;-69
2022/07/02 03:05:19;;;;;;;6.40;2.50;;;15.40;99.90;;;;;;4953708;28;20476;-69
2022/07/02 03:07:45;;;;;;;8.05;2.17;;;15.40;99.90;;;;;;4953430;28;20031;-69
2022/07/02 03:10:11;;;;;;;7.13;2.10;;;15.40;99.90;;;;;;4953503;29;20436;-69
2022/07/02 03:12:37;;;;;;;5.60;2.30;;;15.30;99.90;;;;;;4953664;29;20031;-69
2022/07/02 03:15:03;;;;;;;5.05;2.45;;;15.30;99.90;;;;;;4953500;28;20027;-69
2022/07/02 03:17:30;;;;;;;6.03;2.72;;;15.30;99.90;;;;;;4952440;28;20078;-69
2022/07/02 03:19:55;;;;;;;5.70;2.30;;;15.20;99.90;;;;;;4953542;28;20067;-69
2022/07/02 03:22:22;;;;;;;3.33;1.90;;;15.20;99.90;;;;;;4953808;28;20031;-69
2022/07/02 03:24:47;;;;;;;5.28;2.67;;;15.30;99.90;;;;;;4953295;29;20074;-69
2022/07/02 03:27:13;;;;;;;5.15;2.45;;;15.30;99.90;;;;;;4953091;29;20027;-69
2022/07/02 03:29:39;;;;;;;6.95;2.60;;;15.30;99.90;;;;;;4951889;28;20074;-69
2022/07/02 03:32:06;;;;;;;7.40;2.50;;;15.30;99.90;;;;;;4953247;29;20035;-69
2022/07/02 03:34:31;;;;;;;6.05;2.50;;;15.30;99.90;;;;;;4953044;29;20035;-69
2022/07/02 03:36:57;;;;;;;6.43;2.95;;;15.30;99.90;;;;;;4952884;29;20031;-69
2022/07/02 03:39:23;;;;;;;5.25;2.33;;;15.30;99.90;;;;;;4951594;28;20072;-69
2022/07/02 03:41:49;;;;;;;7.47;2.63;;;15.30;99.90;;;;;;4952945;29;20113;-69
2022/07/02 03:44:15;;;;;;;7.10;2.85;;;15.30;99.90;;;;;;4953246;29;20050;-69
2022/07/02 03:46:41;;;;;;;6.05;3.05;;;15.30;99.90;;;;;;4952892;29;20496;-69
2022/07/02 03:49:07;;;;;;;9.38;3.22;;;15.40;99.90;;;;;;4952838;28;20445;-69
2022/07/02 03:51:33;;;;;;;8.32;3.40;;;15.40;99.90;;;;;;4952830;29;20082;-69
2022/07/02 03:53:58;;;;;;;11.80;3.30;;;15.40;99.90;;;;;;4952926;29;20035;-69
2022/07/02 03:56:24;;;;;;;13.38;3.53;;;15.30;99.90;;;;;;4952651;28;20400;-69
2022/07/02 03:58:51;;;;;;;13.60;3.53;;;15.40;99.90;;;;;;4951433;28;20078;-69
2022/07/02 04:01:17;;;;;;;7.68;3.42;;;15.40;99.90;;;;;;4952809;29;20456;-69
2022/07/02 04:03:43;;;;;;;7.00;3.20;;;15.40;99.90;;;;;;4952664;29;20023;-69
2022/07/02 04:06:09;;;;;;;11.85;3.75;;;15.50;99.90;;;;;;4952639;29;20032;-69
2022/07/02 04:08:36;;;;;;;10.32;4.00;;;15.50;99.90;;;;;;4952719;28;20118;-69
2022/07/02 04:11:01;;;;;;;10.10;3.40;;;15.60;99.90;;;;;;4952710;29;20106;-70
2022/07/02 04:13:27;;;;;;;8.68;3.40;;;15.50;99.90;;;;;;4952919;29;20063;-69
2022/07/02 04:15:53;;;;;;;10.63;3.55;;;15.50;99.90;;;;;;4952574;29;20400;-69
2022/07/02 04:18:19;;;;;;;9.50;3.60;;;15.50;99.90;;;;;;4952586;28;20476;-69
2022/07/02 04:20:46;;;;;;;7.95;3.25;;;15.50;99.90;;;;;;4952475;29;20042;-69
2022/07/02 04:23:11;;;;;;;9.40;3.03;;;15.60;99.90;;;;;;4952680;29;20077;-69
2022/07/02 04:25:37;;;;;;;9.27;3.53;;;15.60;99.90;;;;;;4952440;29;20496;-69
2022/07/02 04:28:04;;;;;;;8.45;3.38;;;15.60;99.90;;;;;;4954220;28;20031;-69
2022/07/02 04:30:30;;;;;;;8.82;3.72;;;15.60;99.90;;;;;;4956617;29;20027;-69
2022/07/02 04:32:56;;;;;;;10.30;3.60;;;15.60;99.90;;;;;;4956214;29;20039;-70
2022/07/02 04:35:22;;;;;;;8.65;3.75;;;15.60;99.90;;;;;;4956206;29;20118;-69
2022/07/02 04:37:48;;;;;;;8.52;3.67;;;15.70;99.90;;;;;;4956213;28;20054;-69
2022/07/02 04:40:14;;;;;;;9.02;3.42;;;15.70;99.90;;;;;;4954634;29;20543;-69
2022/07/02 04:42:40;;;;;;;8.50;3.35;;;15.70;99.90;;;;;;4956161;29;20523;-70
2022/07/02 04:45:06;;;;;;;8.00;3.65;;;15.80;99.90;;;;;;4956193;29;20058;-69
2022/07/02 04:47:32;;;;;;;9.18;3.35;;;15.80;99.90;;;;;;4955982;28;20366;-69
2022/07/02 04:49:58;;;;;;;10.25;3.42;;;15.80;99.90;;;;;;4955769;29;20062;-69
2022/07/02 04:52:24;;;;;;;6.05;2.70;;;15.80;99.90;;;;;;4956073;29;20072;-69
2022/07/02 04:54:51;;;;;;;8.85;2.80;;;15.90;99.90;;;;;;4955954;29;20063;-69
2022/07/02 04:57:16;;;;;;;5.70;2.67;;;15.90;99.90;;;;;;4955926;28;20477;-69
2022/07/02 04:59:44;;;;;;;7.05;2.92;;;16.00;99.90;;;;;;4955600;28;20143;-69
2022/07/02 05:02:11;;;;;;;6.78;2.72;;;16.00;99.90;;;;;;4955857;29;20122;-69
2022/07/02 05:04:38;;;;;;;7.50;2.97;;;16.10;99.90;;;;;;4955741;29;20469;-69
2022/07/02 05:07:04;;;;;;;6.03;2.90;;;16.20;99.90;;;;;;4954338;29;20062;-70
2022/07/02 05:09:30;;;;;;;6.90;3.25;;;16.20;99.90;;;;;;4955464;28;20035;-69
2022/07/02 05:11:55;;;;;;;7.07;2.97;;;16.20;99.90;;;;;;4955948;29;20045;-69
2022/07/02 05:14:22;;;;;;;4.38;2.40;;;16.20;99.90;;;;;;4955531;29;20542;-69
2022/07/02 05:16:47;;;;;;;7.03;2.40;;;16.30;99.90;;;;;;4955334;29;20305;-69
2022/07/02 05:19:13;;;;;;;6.60;2.80;;;16.30;99.90;;;;;;4955328;28;20027;-69
2022/07/02 05:21:41;;;;;;;5.85;2.33;;;16.40;99.90;;;;;;4955412;29;20051;-69
2022/07/02 05:24:07;;;;;;;5.20;2.13;;;16.40;99.90;;;;;;4955434;29;20392;-69
2022/07/02 05:26:34;;;;;;;5.07;2.20;;;16.50;99.90;;;;;;4955336;29;20031;-69
2022/07/02 05:29:00;;;;;;;4.47;1.95;;;16.50;99.90;;;;;;4953837;28;20039;-70
2022/07/02 05:31:26;;;;;;;5.88;2.25;;;16.60;99.90;;;;;;4955334;29;20043;-69
2022/07/02 05:33:52;;;;;;;5.65;2.33;;;16.60;99.90;;;;;;4955047;28;20043;-70
2022/07/02 05:36:18;;;;;;;7.13;2.20;;;16.60;99.90;;;;;;4955042;29;20559;-70
2022/07/02 05:38:44;;;;;;;4.47;2.08;;;16.70;99.90;;;;;;4954478;28;20511;-69
2022/07/02 05:41:10;;;;;;;4.57;2.20;;;16.70;99.90;;;;;;4954782;28;20027;-69
2022/07/02 05:43:36;;;;;;;6.90;2.20;;;16.80;99.90;;;;;;4954034;29;20035;-69
2022/07/02 05:46:02;;;;;;;4.45;2.22;;;16.80;99.90;;;;;;4954915;29;20509;-69
2022/07/02 05:48:28;;;;;;;4.15;2.15;;;16.90;99.90;;;;;;4954808;28;20548;-70
2022/07/02 05:50:53;;;;;;;4.00;2.10;;;16.90;99.90;;;;;;4954792;29;20023;-70
2022/07/02 05:53:19;;;;;;;4.78;2.17;;;16.90;99.90;;;;;;4954898;29;20493;-70
2022/07/02 05:55:45;;;;;;;3.20;1.70;;;17.00;99.90;;;;;;4954893;28;20636;-70
2022/07/02 05:58:12;;;;;;;5.15;2.03;;;17.00;99.90;;;;;;4954792;28;20050;-70
2022/07/02 06:00:39;;;;;;;3.80;1.90;;;17.10;99.90;;;;;;4953209;29;20038;-70
2022/07/02 06:03:05;;;;;;;6.47;2.13;;;17.10;99.90;;;;;;4954756;29;20031;-69
2022/07/02 06:08:16;;;;;;;5.03;2.03;;;17.20;99.90;;;;;;4954607;28;20079;-70
2022/07/02 06:10:42;;;;;;;5.07;2.33;;;17.30;99.90;;;;;;4954518;29;20049;-69
2022/07/02 06:13:08;;;;;;;4.97;1.95;;;17.30;99.90;;;;;;4954590;29;20361;-69
2022/07/02 06:15:34;;;;;;;4.63;1.70;;;17.40;99.90;;;;;;4953290;29;20066;-71
2022/07/02 06:18:00;;;;;;;4.20;1.70;;;17.40;99.90;;;;;;4954363;28;20034;-71
2022/07/02 06:20:26;;;;;;;4.10;1.88;;;17.50;99.90;;;;;;4954252;29;20032;-70
2022/07/02 06:22:52;;;;;;;4.65;1.83;;;17.50;99.90;;;;;;4954543;29;20046;-70
2022/07/02 06:25:19;;;;;;;5.18;1.77;;;17.60;99.90;;;;;;4954301;29;20028;-69
2022/07/02 06:27:45;;;;;;;6.32;1.95;;;17.60;99.90;;;;;;4954469;28;20031;-69
2022/07/02 06:30:11;;;;;;;4.53;1.77;;;17.60;99.90;;;;;;4953971;29;20038;-70
2022/07/02 06:32:37;;;;;;;3.88;1.70;;;17.70;99.90;;;;;;4954251;29;20031;-70
2022/07/02 06:35:03;;;;;;;6.20;1.90;;;17.70;99.90;;;;;;4954178;29;20027;-70
2022/07/02 06:37:29;;;;;;;9.05;1.80;;;17.80;99.90;;;;;;4953749;28;20031;-69
2022/07/02 06:39:56;;;;;;;5.22;1.60;;;17.80;99.90;;;;;;4954002;29;20035;-69
2022/07/02 06:42:29;;;;;;;3.83;1.80;;;17.80;99.90;;;;;;4953927;29;20507;-69
2022/07/02 06:44:58;;;;;;;4.88;1.90;;;17.90;99.90;;;;;;4952598;29;20047;-69
2022/07/02 06:47:25;;;;;;;4.10;1.70;;;18.00;99.90;;;;;;4953907;29;20027;-69
2022/07/02 06:49:53;;;;;;;3.92;1.70;;;18.00;99.80;;;;;;4952548;29;20023;-69
2022/07/02 06:52:19;;;;;;;3.30;1.60;;;18.00;99.90;;;;;;4954180;28;20031;-69
2022/07/02 06:54:45;;;;;;;4.57;1.70;;;18.10;99.90;;;;;;4953816;29;20043;-70
2022/07/02 06:57:11;;;;;;;4.85;1.80;;;18.10;99.90;;;;;;4953697;28;20039;-69
2022/07/02 06:59:37;;;;;;;4.75;1.75;;;18.10;99.80;;;;;;4953278;28;20119;-69
2022/07/02 07:02:05;;;;;;;4.53;1.45;;;18.10;99.60;;;;;;4954124;29;20162;-70
2022/07/02 07:04:31;;;;;;;4.57;1.50;;;18.20;99.40;;;;;;4953959;29;20038;-69
2022/07/02 07:07:03;;;;;;;3.90;1.33;;;18.20;99.40;;;;;;4953386;29;20030;-70
2022/07/02 07:09:29;;;;;;;4.75;1.83;;;18.20;99.30;;;;;;4953253;28;20041;-70
2022/07/02 07:12:00;;;;;;;4.20;1.90;;;18.30;99.00;;;;;;4952263;29;20486;-70
2022/07/02 07:14:26;;;;;;;5.70;2.00;;;18.30;99.00;;;;;;4953554;29;20039;-70
2022/07/02 07:16:52;;;;;;;4.53;1.80;;;18.30;99.10;;;;;;4951900;29;20105;-70
2022/07/02 07:19:18;;;;;;;4.75;1.70;;;18.40;99.10;;;;;;4953131;28;20067;-70
2022/07/02 07:21:43;;;;;;;5.82;1.88;;;18.40;98.80;;;;;;4953101;29;20477;-69
2022/07/02 07:24:10;;;;;;;3.38;1.92;;;18.50;98.70;;;;;;4953260;28;20039;-69
2022/07/02 07:26:37;;;;;;;4.00;1.70;;;18.50;98.90;;;;;;4953278;29;20051;-69
2022/07/02 07:29:05;;;;;;;3.17;1.67;;;18.50;98.60;;;;;;4953037;28;20031;-69
2022/07/02 07:31:33;;;;;;;4.00;1.98;;;18.60;98.40;;;;;;4953229;29;20519;-69
2022/07/02 07:33:59;;;;;;;5.70;2.00;;;18.60;98.40;;;;;;4951872;29;20043;-69
2022/07/02 07:36:28;;;;;;;4.75;1.60;;;18.60;98.40;;;;;;4952745;29;20506;-69
2022/07/02 07:38:55;;;;;;;4.43;1.35;;;18.60;98.30;;;;;;4951591;28;20098;-70
2022/07/02 07:41:22;;;;;;;2.72;1.30;;;18.60;98.20;;;;;;4951684;29;20385;-69
2022/07/02 07:43:48;;;;;;;1.85;0.90;;;18.70;98.00;;;;;;4952875;28;20086;-70
2022/07/02 07:46:14;;;;;;;3.47;1.60;;;18.70;98.10;;;;;;4952850;29;20469;-70
2022/07/02 07:48:40;;;;;;;3.15;1.25;;;18.80;98.10;;;;;;4952755;28;20476;-70
2022/07/02 07:51:06;;;;;;;5.22;1.73;;;18.80;97.80;;;;;;4953228;29;20042;-70
2022/07/02 07:53:33;;;;;;;2.83;1.20;;;18.80;96.70;;;;;;4952995;29;20031;-70
2022/07/02 07:55:59;;;;;;;4.03;1.45;;;18.90;96.80;;;;;;4952790;29;20032;-70
2022/07/02 07:58:25;;;;;;;5.28;1.75;;;18.90;96.60;;;;;;4951627;28;20031;-70
2022/07/02 08:00:52;;;;;;;3.17;1.42;;;19.00;96.00;;;;;;4952746;29;20318;-69
2022/07/02 08:03:19;;;;;;;3.15;1.20;;;19.00;95.60;;;;;;4956921;28;20024;-70
2022/07/02 08:05:53;;;;;;;4.78;1.45;;;19.00;96.00;;;;;;4959092;29;20319;-69
2022/07/02 08:08:22;;;;;;;2.10;1.10;;;19.10;95.80;;;;;;4959023;28;20031;-69
2022/07/02 08:10:48;;;;;;;;;;;19.10;95.70;;;;;;4959466;28;20062;-70
2022/07/02 08:13:15;;;;;;;2.85;1.20;;;19.10;95.80;;;;;;4959095;28;20012;-70
2022/07/02 08:15:41;;;;;;;2.80;1.10;;;19.10;95.70;;;;;;4958984;29;20053;-70
2022/07/02 08:18:08;;;;;;;3.35;1.52;;;19.10;95.80;;;;;;4959230;28;20042;-69
2022/07/02 08:20:34;;;;;;;3.25;1.40;;;19.20;95.50;;;;;;4958876;29;20088;-70
2022/07/02 08:23:00;;;;;;;3.60;1.60;;;19.30;94.70;;;;;;4959216;28;20023;-69
2022/07/02 08:25:26;;;;;;;4.20;1.27;;;19.30;94.50;;;;;;4959189;28;20061;-70
2022/07/02 08:27:52;;;;;;;2.83;1.30;;;19.40;94.20;;;;;;4958855;28;20055;-70
2022/07/02 08:30:18;;;;;;;4.10;1.00;;;19.40;93.60;;;;;;4958735;29;20608;-69
2022/07/02 08:32:44;;;;;;;3.63;1.27;;;19.50;92.90;;;;;;4958863;28;20070;-71
2022/07/02 08:35:10;;;;;;;4.13;1.33;;;19.50;92.90;;;;;;4958796;29;20035;-70
2022/07/02 08:37:37;;;;;;;2.35;1.00;;;19.50;93.40;;;;;;4958625;28;20058;-70
2022/07/02 08:40:04;;;;;;;4.25;1.15;;;19.50;93.30;;;;;;4958879;29;20489;-71
2022/07/02 08:42:31;;;;;;;3.50;1.40;;;19.50;92.50;;;;;;4958814;28;20086;-69
2022/07/02 08:45:03;;;;;;;3.92;1.10;;;19.50;91.70;;;;;;4958968;29;20485;-69
2022/07/02 08:47:30;;;;;;;4.45;1.20;;;19.60;91.80;;;;;;4958521;28;20450;-69
2022/07/02 08:49:58;;;;;;;2.13;1.20;;;19.60;92.00;;;;;;4957583;28;20035;-69
2022/07/02 08:52:26;;;;;;;2.88;1.15;;;19.60;92.30;;;;;;4959021;29;20448;-70
2022/07/02 08:54:54;;;;;;;2.72;1.20;;;19.70;92.20;;;;;;4958914;28;20117;-70
2022/07/02 08:57:21;;;;;;;3.63;1.40;;;19.70;91.10;;;;;;4958447;29;20023;-70
2022/07/02 08:59:47;;;;;;;2.88;1.20;;;19.80;90.10;;;;;;4958459;28;20142;-69
2022/07/02 09:02:14;;;;;;;6.35;1.48;;;19.80;90.00;;;;;;4958610;29;20115;-70
2022/07/02 09:04:46;;;;;;;2.58;1.20;;;19.80;89.80;;;;;;4958509;29;20033;-69
2022/07/02 09:07:14;;;;;;;4.03;1.60;;;19.90;90.00;;;;;;4958703;28;20081;-69
2022/07/02 09:09:43;;;;;;;3.78;1.40;;;20.00;89.80;;;;;;4958553;28;20059;-69
2022/07/02 09:12:14;;;;;;;2.60;1.35;;;19.90;90.20;;;;;;4959039;28;20039;-69
2022/07/02 09:14:42;;;;;;;3.45;1.60;;;19.90;91.00;;;;;;4955496;28;20050;-69
2022/07/02 09:17:09;;;;;;;3.65;1.67;;;20.00;90.20;;;;;;4955346;29;20042;-69
2022/07/02 09:19:36;;;;;;;3.78;1.30;;;20.00;89.90;;;;;;4954031;28;20378;-69
2022/07/02 09:22:03;;;;;;;2.92;0.90;;;20.00;89.70;;;;;;4955863;28;20079;-69
2022/07/02 09:24:39;;;;;;;3.63;1.30;;;20.00;87.60;;;;;;4955420;29;20031;-69
2022/07/02 09:27:14;;;;;;;2.42;0.90;;;20.10;87.50;;;;;;4953928;29;20481;-69
2022/07/02 09:30:07;;;;;;;3.60;1.00;;;20.20;87.20;;;;;;4954061;28;20039;-70
2022/07/02 09:32:45;;;;;;;3.33;0.90;;;20.20;85.40;;;;;;4954340;29;20075;-69
2022/07/02 09:35:21;;;;;;;1.83;0.85;;;20.20;85.00;;;;;;4955274;29;20043;-69
2022/07/02 09:37:49;;;;;;;1.83;0.80;;;20.30;85.30;;;;;;4955134;28;20040;-69
2022/07/02 09:40:16;;;;;;;3.00;1.00;;;20.30;85.40;;;;;;4954965;29;20031;-69
2022/07/02 09:42:46;;;;;;;2.17;0.90;;;20.40;85.40;;;;;;4955147;29;20027;-69
2022/07/02 09:45:13;;;;;;;2.97;0.90;;;20.40;85.80;;;;;;4955288;29;20081;-67
2022/07/02 09:47:41;;;;;;;1.92;0.60;;;20.50;83.70;;;;;;4954858;28;20081;-67
2022/07/02 09:50:11;;;;;;;2.78;0.90;;;20.50;83.60;;;;;;4954733;29;20035;-67
2022/07/02 09:52:51;;;;;;;3.33;0.82;;;20.60;83.10;;;;;;4954969;29;20035;-67
2022/07/02 09:55:25;;;;;;;2.63;1.20;;;20.70;83.20;;;;;;4954828;29;20027;-67
2022/07/02 09:57:55;;;;;;;2.70;1.05;;;20.80;81.50;;;;;;4954591;28;20472;-67
2022/07/02 10:00:23;;;;;;;1.48;0.70;;;20.90;80.50;;;;;;4954565;28;20089;-67
2022/07/02 10:02:54;;;;;;;2.00;0.77;;;20.90;80.50;;;;;;4955075;29;20507;-67
2022/07/02 10:05:26;;;;;;;2.67;0.85;;;20.80;78.10;;;;;;4954825;29;20030;-67
2022/07/02 10:07:53;;;;;;;3.08;0.80;;;20.80;77.40;;;;;;4954621;28;20031;-67
2022/07/02 10:10:50;;;;;;;2.70;0.82;;;20.80;78.20;;;;;;4954808;28;20035;-67
2022/07/02 10:13:17;;;;;;;1.20;0.70;;;20.70;78.00;;;;;;4954260;29;20489;-67
2022/07/02 10:15:51;;;;;;;4.55;1.10;;;20.70;78.60;;;;;;4954387;29;20035;-67
2022/07/02 10:18:18;;;;;;;3.97;1.15;;;20.60;78.80;;;;;;4954425;28;20038;-67
2022/07/02 10:20:45;;;;;;;2.78;1.02;;;20.60;77.60;;;;;;4954187;29;20031;-67
2022/07/02 10:23:12;;;;;;;1.58;0.75;;;20.60;78.20;;;;;;4954378;29;20039;-67
2022/07/02 10:25:39;;;;;;;2.38;1.00;;;20.70;78.20;;;;;;4954236;28;20019;-67
2022/07/02 10:28:05;;;;;;;2.70;1.00;;;20.80;76.90;;;;;;4954110;28;20055;-67
2022/07/02 10:30:32;;;;;;;2.55;1.15;;;20.80;75.90;;;;;;4954090;29;20472;-67
2022/07/02 10:33:44;;;;;;;1.55;0.90;;;20.80;76.50;;;;;;4968612;23;20015;-70
2022/07/02 10:36:13;;;;;;;1.88;1.00;;;20.80;78.30;;;;;;4944119;28;20045;-70
2022/07/02 10:38:39;;;;;;;1.83;0.98;;;20.80;76.70;;;;;;4953867;28;20039;-70
2022/07/02 10:41:07;;;;;;;3.70;0.80;;;20.80;75.90;;;;;;4952657;29;20475;-70
2022/07/02 10:43:37;;;;;;;3.10;1.30;;;21.10;74.20;;;;;;4954143;29;20035;-70
2022/07/02 10:46:11;;;;;;;3.95;1.67;;;21.10;73.10;;;;;;4954080;29;20055;-69
2022/07/02 10:49:05;;;;;;;3.58;1.15;;;21.10;73.40;;;;;;4952641;28;20042;-70
2022/07/02 10:51:35;;;;;;;3.67;1.70;;;21.20;75.00;;;;;;4953129;28;20047;-69
2022/07/02 10:54:08;;;;;;;3.70;1.52;;;21.20;74.80;;;;;;4953837;29;20035;-70
2022/07/02 10:56:49;;;;;;;3.90;1.00;;;21.30;75.40;;;;;;4953547;29;20031;-70
2022/07/02 10:59:22;;;;;;;2.45;1.13;;;21.30;76.40;;;;;;4953619;28;20047;-70
2022/07/02 11:02:06;;;;;;;2.03;1.30;;;21.30;75.80;;;;;;4953547;29;20510;-70
2022/07/02 11:04:33;;;;;;;3.63;1.30;;;21.30;75.70;;;;;;4953673;29;20034;-70
2022/07/02 11:07:11;;;;;;;2.47;1.25;;;21.30;74.10;;;;;;4953343;29;20511;-70
2022/07/02 11:09:55;;;;;;;5.05;1.60;;;21.30;75.00;;;;;;4953413;28;20194;-70
2022/07/02 11:12:27;;;;;;;2.55;1.23;;;21.40;75.20;;;;;;4952612;29;20039;-69
2022/07/02 11:14:57;;;;;;;2.53;1.10;;;21.40;73.80;;;;;;4952695;29;20059;-69
2022/07/02 11:17:24;;;;;;;3.03;1.50;;;21.40;73.60;;;;;;4953683;29;20034;-70
2022/07/02 11:19:54;;;;;;;3.63;1.55;;;21.50;74.60;;;;;;4953421;29;20053;-70
2022/07/02 11:22:20;;;;;;;3.33;1.10;;;21.50;75.50;;;;;;4953272;29;20473;-70
2022/07/02 11:24:46;;;;;;;1.90;1.00;;;21.50;74.50;;;;;;4953298;29;20042;-70
2022/07/02 11:27:14;;;;;;;2.38;0.90;;;21.40;76.20;;;;;;4953009;29;20126;-70
2022/07/02 11:29:51;;;;;;;1.90;0.93;;;21.40;75.40;;;;;;4953404;28;20195;-70
2022/07/02 11:32:17;;;;;;;3.13;1.10;;;21.40;75.00;;;;;;4953121;29;20043;-71
2022/07/02 11:34:43;;;;;;;4.18;1.83;;;21.40;73.50;;;;;;4953160;29;20043;-70
2022/07/02 11:37:20;;;;;;;5.45;1.50;;;21.50;74.80;;;;;;4952405;28;20063;-70
2022/07/02 11:39:46;;;;;;;3.25;1.10;;;21.60;74.60;;;;;;4951684;28;20500;-70
2022/07/02 11:42:12;;;;;;;4.68;1.20;;;21.70;74.20;;;;;;4951799;29;20195;-70
2022/07/02 11:44:38;;;;;;;2.28;0.98;;;21.70;74.40;;;;;;4953464;28;20056;-71
2022/07/02 11:47:04;;;;;;;3.10;1.00;;;21.80;74.90;;;;;;4953108;29;20121;-71
2022/07/02 11:49:36;;;;;;;2.53;0.80;;;21.70;75.30;;;;;;4952943;28;20244;-71
2022/07/02 11:52:05;;;;;;;3.67;1.27;;;21.70;75.40;;;;;;4952973;29;20120;-70
2022/07/02 11:54:31;;;;;;;3.15;0.90;;;21.80;74.40;;;;;;4953091;28;20031;-71
2022/07/02 11:56:57;;;;;;;3.83;1.10;;;21.90;72.60;;;;;;4952994;29;20031;-70
2022/07/02 11:59:25;;;;;;;2.88;1.10;;;22.00;72.40;;;;;;4952826;28;20051;-71
2022/07/02 12:01:53;;;;;;;4.72;0.73;;;22.10;71.70;;;;;;4952925;29;20027;-69
2022/07/02 12:04:21;;;;;;;1.95;0.90;;;22.10;70.50;;;;;;4936508;29;20031;-69
2022/07/02 12:06:50;;;;;;;1.67;0.98;;;22.20;71.50;;;;;;4951729;29;20039;-70
2022/07/02 12:09:18;;;;;;;4.53;0.88;;;22.30;71.40;;;;;;4952825;28;20035;-70
2022/07/02 12:11:46;;;;;;;2.30;1.10;;;22.40;70.70;;;;;;4952936;29;20089;-69
2022/07/02 12:14:13;;;;;;;2.30;0.80;;;22.50;69.40;;;;;;4952997;29;20034;-69
2022/07/02 12:16:43;;;;;;;2.47;0.95;;;22.50;70.10;;;;;;4952755;29;20045;-69
2022/07/02 12:19:10;;;;;;;2.72;0.80;;;22.60;71.00;;;;;;4952652;28;20035;-69
2022/07/02 12:21:42;;;;;;;4.88;1.10;;;22.70;69.30;;;;;;4952647;28;20035;-70
2022/07/02 12:24:24;;;;;;;2.92;1.10;;;22.80;68.80;;;;;;4952904;29;20383;-70
2022/07/02 12:26:54;;;;;;;2.97;1.05;;;23.00;70.10;;;;;;4952811;29;20034;-70
2022/07/02 12:32:13;;;;;;;1.38;0.70;;;23.10;68.40;;;;;;4953036;28;20391;-70
2022/07/02 12:34:44;;;;;;;1.27;0.63;;;23.10;68.10;;;;;;4951327;29;20408;-70
2022/07/02 12:37:33;;;;;;;2.55;0.80;;;23.00;68.00;;;;;;4952322;29;20041;-70
2022/07/02 12:40:00;;;;;;;1.90;0.90;;;23.10;69.60;;;;;;4952341;29;20058;-70
2022/07/02 12:42:28;;;;;;;5.38;2.22;;;23.30;69.10;;;;;;4952519;29;20027;-70
2022/07/02 12:44:57;;;;;;;3.35;1.65;;;23.40;69.00;;;;;;4952443;29;20395;-70
2022/07/02 12:47:29;;;;;;;2.58;1.15;;;23.30;68.20;;;;;;4952376;29;20036;-70
2022/07/02 12:49:58;;;;;;;3.40;1.10;;;23.50;68.40;;;;;;4955201;28;20054;-70
2022/07/02 12:52:27;;;;;;;1.73;0.90;;;23.50;68.30;;;;;;4956057;29;20070;-69
2022/07/02 12:54:52;;;;;;;;;;;23.50;67.00;;;;;;4955237;29;20031;-71
2022/07/02 12:57:21;;;;;;;5.43;2.45;;;23.50;68.60;;;;;;4955873;29;19921;-71
2022/07/02 12:59:49;;;;;;;6.70;2.15;;;23.60;69.20;;;;;;4955716;28;20027;-71
2022/07/02 13:02:30;;;;;;;5.03;1.83;;;23.60;70.20;;;;;;4954943;29;20396;-71